sensor_id;sensor_type;location;lat;lon;timestamp;P1;durP1;ratioP1;P2;durP2;ratioP2
8058;SDS011;4072;42.668;23.396;2023-11-22T00:02:09;38.60;;;26.37;;
8058;SDS011;4072;42.668;23.396;2023-11-22T00:04:37;33.50;;;24.00;;
8058;SDS011;4072;42.668;23.396;2023-11-22T00:07:05;35.03;;;24.47;;
8058;SDS011;4072;42.668;23.396;2023-11-22T00:09:35;36.40;;;23.73;;
8058;SDS011;4072;42.668;23.396;2023-11-22T00:12:06;30.57;;;22.40;;
8058;SDS011;4072;42.668;23.396;2023-11-22T00:14:34;31.50;;;24.30;;
8058;SDS011;4072;42.668;23.396;2023-11-22T00:17:03;35.80;;;24.57;;
8058;SDS011;4072;42.668;23.396;2023-11-22T00:19:32;33.17;;;23.80;;
8058;SDS011;4072;42.668;23.396;2023-11-22T00:22:00;34.50;;;24.83;;
8058;SDS011;4072;42.668;23.396;2023-11-22T00:24:36;32.70;;;24.23;;
8058;SDS011;4072;42.668;23.396;2023-11-22T00:27:06;34.07;;;24.50;;
8058;SDS011;4072;42.668;23.396;2023-11-22T00:29:34;35.80;;;23.53;;
8058;SDS011;4072;42.668;23.396;2023-11-22T00:32:02;35.00;;;25.30;;
8058;SDS011;4072;42.668;23.396;2023-11-22T00:34:31;39.50;;;25.70;;
8058;SDS011;4072;42.668;23.396;2023-11-22T00:36:59;38.67;;;25.13;;
8058;SDS011;4072;42.668;23.396;2023-11-22T00:39:27;33.20;;;25.13;;
8058;SDS011;4072;42.668;23.396;2023-11-22T00:41:55;37.00;;;26.37;;
8058;SDS011;4072;42.668;23.396;2023-11-22T00:44:25;34.70;;;25.27;;
8058;SDS011;4072;42.668;23.396;2023-11-22T00:46:53;32.20;;;22.10;;
8058;SDS011;4072;42.668;23.396;2023-11-22T00:49:22;31.50;;;23.87;;
8058;SDS011;4072;42.668;23.396;2023-11-22T00:51:50;34.60;;;23.37;;
8058;SDS011;4072;42.668;23.396;2023-11-22T00:54:19;32.00;;;23.07;;
8058;SDS011;4072;42.668;23.396;2023-11-22T00:56:47;33.10;;;22.60;;
8058;SDS011;4072;42.668;23.396;2023-11-22T00:59:15;29.70;;;21.00;;
8058;SDS011;4072;42.668;23.396;2023-11-22T01:01:45;28.97;;;21.93;;
8058;SDS011;4072;42.668;23.396;2023-11-22T01:04:14;34.33;;;23.20;;
8058;SDS011;4072;42.668;23.396;2023-11-22T01:06:43;33.40;;;23.60;;
8058;SDS011;4072;42.668;23.396;2023-11-22T01:09:11;33.17;;;22.77;;
8058;SDS011;4072;42.668;23.396;2023-11-22T01:11:40;26.83;;;20.37;;
8058;SDS011;4072;42.668;23.396;2023-11-22T01:14:09;36.63;;;22.13;;
8058;SDS011;4072;42.668;23.396;2023-11-22T01:16:37;28.47;;;21.10;;
8058;SDS011;4072;42.668;23.396;2023-11-22T01:19:07;29.50;;;21.27;;
8058;SDS011;4072;42.668;23.396;2023-11-22T01:21:35;27.93;;;21.13;;
8058;SDS011;4072;42.668;23.396;2023-11-22T01:24:03;30.10;;;21.30;;
8058;SDS011;4072;42.668;23.396;2023-11-22T01:26:32;28.67;;;20.93;;
8058;SDS011;4072;42.668;23.396;2023-11-22T01:29:03;29.00;;;21.17;;
8058;SDS011;4072;42.668;23.396;2023-11-22T01:31:32;26.83;;;19.70;;
8058;SDS011;4072;42.668;23.396;2023-11-22T01:34:00;26.50;;;19.50;;
8058;SDS011;4072;42.668;23.396;2023-11-22T01:36:29;25.53;;;19.13;;
8058;SDS011;4072;42.668;23.396;2023-11-22T01:38:58;26.83;;;20.87;;
8058;SDS011;4072;42.668;23.396;2023-11-22T01:41:26;29.67;;;21.30;;
8058;SDS011;4072;42.668;23.396;2023-11-22T01:43:58;27.07;;;19.53;;
8058;SDS011;4072;42.668;23.396;2023-11-22T01:46:27;26.60;;;19.30;;
8058;SDS011;4072;42.668;23.396;2023-11-22T01:48:55;27.00;;;20.87;;
8058;SDS011;4072;42.668;23.396;2023-11-22T01:51:24;27.27;;;20.17;;
8058;SDS011;4072;42.668;23.396;2023-11-22T01:53:55;30.27;;;20.67;;
8058;SDS011;4072;42.668;23.396;2023-11-22T01:56:25;29.10;;;20.90;;
8058;SDS011;4072;42.668;23.396;2023-11-22T01:58:55;26.67;;;18.50;;
8058;SDS011;4072;42.668;23.396;2023-11-22T02:01:26;27.07;;;20.00;;
8058;SDS011;4072;42.668;23.396;2023-11-22T02:03:55;22.87;;;16.77;;
8058;SDS011;4072;42.668;23.396;2023-11-22T02:06:24;23.43;;;18.47;;
8058;SDS011;4072;42.668;23.396;2023-11-22T02:08:52;24.07;;;17.87;;
8058;SDS011;4072;42.668;23.396;2023-11-22T02:11:22;23.17;;;17.47;;
8058;SDS011;4072;42.668;23.396;2023-11-22T02:13:51;24.73;;;16.97;;
8058;SDS011;4072;42.668;23.396;2023-11-22T02:16:19;25.73;;;18.13;;
8058;SDS011;4072;42.668;23.396;2023-11-22T02:18:48;23.27;;;17.57;;
8058;SDS011;4072;42.668;23.396;2023-11-22T02:21:17;22.73;;;16.93;;
8058;SDS011;4072;42.668;23.396;2023-11-22T02:23:48;25.17;;;16.70;;
8058;SDS011;4072;42.668;23.396;2023-11-22T02:26:17;22.87;;;17.53;;
8058;SDS011;4072;42.668;23.396;2023-11-22T02:28:45;23.53;;;17.43;;
8058;SDS011;4072;42.668;23.396;2023-11-22T02:31:14;23.53;;;17.37;;
8058;SDS011;4072;42.668;23.396;2023-11-22T02:33:43;24.33;;;17.33;;
8058;SDS011;4072;42.668;23.396;2023-11-22T02:36:11;25.83;;;17.37;;
8058;SDS011;4072;42.668;23.396;2023-11-22T02:38:39;23.53;;;16.60;;
8058;SDS011;4072;42.668;23.396;2023-11-22T02:41:10;23.40;;;17.27;;
8058;SDS011;4072;42.668;23.396;2023-11-22T02:43:41;20.30;;;17.00;;
8058;SDS011;4072;42.668;23.396;2023-11-22T02:46:09;24.90;;;16.77;;
8058;SDS011;4072;42.668;23.396;2023-11-22T02:48:37;21.53;;;16.67;;
8058;SDS011;4072;42.668;23.396;2023-11-22T02:51:06;22.07;;;16.83;;
8058;SDS011;4072;42.668;23.396;2023-11-22T02:53:34;19.70;;;16.00;;
8058;SDS011;4072;42.668;23.396;2023-11-22T02:56:04;21.60;;;16.27;;
8058;SDS011;4072;42.668;23.396;2023-11-22T02:58:34;23.57;;;17.00;;
8058;SDS011;4072;42.668;23.396;2023-11-22T03:01:02;21.87;;;16.23;;
8058;SDS011;4072;42.668;23.396;2023-11-22T03:03:31;26.50;;;16.40;;
8058;SDS011;4072;42.668;23.396;2023-11-22T03:06:00;20.43;;;16.00;;
8058;SDS011;4072;42.668;23.396;2023-11-22T03:08:28;25.70;;;18.13;;
8058;SDS011;4072;42.668;23.396;2023-11-22T03:10:56;25.07;;;16.20;;
8058;SDS011;4072;42.668;23.396;2023-11-22T03:13:24;20.37;;;16.77;;
8058;SDS011;4072;42.668;23.396;2023-11-22T03:15:56;20.97;;;16.53;;
8058;SDS011;4072;42.668;23.396;2023-11-22T03:18:24;24.70;;;16.57;;
8058;SDS011;4072;42.668;23.396;2023-11-22T03:20:52;20.73;;;16.50;;
8058;SDS011;4072;42.668;23.396;2023-11-22T03:23:21;20.73;;;14.97;;
8058;SDS011;4072;42.668;23.396;2023-11-22T03:25:49;21.40;;;15.20;;
8058;SDS011;4072;42.668;23.396;2023-11-22T03:28:18;20.00;;;14.53;;
8058;SDS011;4072;42.668;23.396;2023-11-22T03:30:46;20.70;;;14.90;;
8058;SDS011;4072;42.668;23.396;2023-11-22T03:33:16;20.30;;;13.83;;
8058;SDS011;4072;42.668;23.396;2023-11-22T03:35:44;21.10;;;14.63;;
8058;SDS011;4072;42.668;23.396;2023-11-22T03:38:12;23.17;;;14.80;;
8058;SDS011;4072;42.668;23.396;2023-11-22T03:40:40;19.33;;;14.73;;
8058;SDS011;4072;42.668;23.396;2023-11-22T03:43:08;18.00;;;14.27;;
8058;SDS011;4072;42.668;23.396;2023-11-22T03:45:37;18.03;;;14.63;;
8058;SDS011;4072;42.668;23.396;2023-11-22T03:48:06;22.67;;;14.87;;
8058;SDS011;4072;42.668;23.396;2023-11-22T03:50:36;22.03;;;14.77;;
8058;SDS011;4072;42.668;23.396;2023-11-22T03:53:04;19.60;;;14.67;;
8058;SDS011;4072;42.668;23.396;2023-11-22T03:55:32;18.23;;;14.57;;
8058;SDS011;4072;42.668;23.396;2023-11-22T03:58:00;19.43;;;14.90;;
8058;SDS011;4072;42.668;23.396;2023-11-22T04:00:28;22.60;;;15.07;;
8058;SDS011;4072;42.668;23.396;2023-11-22T04:02:58;19.77;;;14.93;;
8058;SDS011;4072;42.668;23.396;2023-11-22T04:05:28;17.33;;;13.63;;
8058;SDS011;4072;42.668;23.396;2023-11-22T04:07:58;19.70;;;15.93;;
8058;SDS011;4072;42.668;23.396;2023-11-22T04:10:29;21.17;;;15.60;;
8058;SDS011;4072;42.668;23.396;2023-11-22T04:12:58;22.77;;;15.40;;
8058;SDS011;4072;42.668;23.396;2023-11-22T04:15:26;20.60;;;15.03;;
8058;SDS011;4072;42.668;23.396;2023-11-22T04:17:55;18.20;;;14.83;;
8058;SDS011;4072;42.668;23.396;2023-11-22T04:20:23;20.47;;;15.27;;
8058;SDS011;4072;42.668;23.396;2023-11-22T04:22:51;18.60;;;15.23;;
8058;SDS011;4072;42.668;23.396;2023-11-22T04:25:21;19.57;;;16.47;;
8058;SDS011;4072;42.668;23.396;2023-11-22T04:27:50;23.43;;;17.30;;
8058;SDS011;4072;42.668;23.396;2023-11-22T04:30:18;28.23;;;20.37;;
8058;SDS011;4072;42.668;23.396;2023-11-22T04:32:46;25.77;;;18.83;;
8058;SDS011;4072;42.668;23.396;2023-11-22T04:35:15;23.17;;;17.77;;
8058;SDS011;4072;42.668;23.396;2023-11-22T04:37:43;26.40;;;19.63;;
8058;SDS011;4072;42.668;23.396;2023-11-22T04:40:13;23.93;;;17.50;;
8058;SDS011;4072;42.668;23.396;2023-11-22T04:42:43;26.47;;;17.73;;
8058;SDS011;4072;42.668;23.396;2023-11-22T04:45:11;23.90;;;18.10;;
8058;SDS011;4072;42.668;23.396;2023-11-22T04:47:40;28.10;;;18.93;;
8058;SDS011;4072;42.668;23.396;2023-11-22T04:50:08;24.70;;;19.23;;
8058;SDS011;4072;42.668;23.396;2023-11-22T04:52:37;24.13;;;17.90;;
8058;SDS011;4072;42.668;23.396;2023-11-22T04:55:06;27.70;;;19.27;;
8058;SDS011;4072;42.668;23.396;2023-11-22T04:57:34;23.37;;;18.30;;
8058;SDS011;4072;42.668;23.396;2023-11-22T05:00:05;21.93;;;17.23;;
8058;SDS011;4072;42.668;23.396;2023-11-22T05:02:34;23.27;;;17.93;;
8058;SDS011;4072;42.668;23.396;2023-11-22T05:05:02;25.27;;;17.43;;
8058;SDS011;4072;42.668;23.396;2023-11-22T05:07:31;26.07;;;19.30;;
8058;SDS011;4072;42.668;23.396;2023-11-22T05:09:59;24.73;;;17.80;;
8058;SDS011;4072;42.668;23.396;2023-11-22T05:12:29;19.63;;;16.60;;
8058;SDS011;4072;42.668;23.396;2023-11-22T05:14:57;23.93;;;17.97;;
8058;SDS011;4072;42.668;23.396;2023-11-22T05:17:27;24.10;;;15.73;;
8058;SDS011;4072;42.668;23.396;2023-11-22T05:19:56;21.47;;;17.53;;
8058;SDS011;4072;42.668;23.396;2023-11-22T05:22:24;17.00;;;14.37;;
8058;SDS011;4072;42.668;23.396;2023-11-22T05:24:52;21.80;;;14.40;;
8058;SDS011;4072;42.668;23.396;2023-11-22T05:27:20;19.97;;;16.03;;
8058;SDS011;4072;42.668;23.396;2023-11-22T05:29:48;20.97;;;17.50;;
8058;SDS011;4072;42.668;23.396;2023-11-22T05:32:21;21.87;;;16.23;;
8058;SDS011;4072;42.668;23.396;2023-11-22T05:34:50;20.17;;;14.70;;
8058;SDS011;4072;42.668;23.396;2023-11-22T05:37:20;19.67;;;15.17;;
8058;SDS011;4072;42.668;23.396;2023-11-22T05:39:50;19.37;;;15.83;;
8058;SDS011;4072;42.668;23.396;2023-11-22T05:42:18;19.33;;;14.97;;
8058;SDS011;4072;42.668;23.396;2023-11-22T05:44:46;21.77;;;16.30;;
8058;SDS011;4072;42.668;23.396;2023-11-22T05:47:16;20.60;;;15.90;;
8058;SDS011;4072;42.668;23.396;2023-11-22T05:49:45;24.10;;;16.63;;
8058;SDS011;4072;42.668;23.396;2023-11-22T05:52:14;20.73;;;14.70;;
8058;SDS011;4072;42.668;23.396;2023-11-22T05:54:43;24.17;;;17.63;;
8058;SDS011;4072;42.668;23.396;2023-11-22T05:57:12;21.57;;;17.03;;
8058;SDS011;4072;42.668;23.396;2023-11-22T05:59:41;23.63;;;15.80;;
8058;SDS011;4072;42.668;23.396;2023-11-22T06:02:10;21.77;;;15.87;;
8058;SDS011;4072;42.668;23.396;2023-11-22T06:04:39;19.30;;;15.97;;
8058;SDS011;4072;42.668;23.396;2023-11-22T06:07:08;21.33;;;16.17;;
8058;SDS011;4072;42.668;23.396;2023-11-22T06:09:39;20.57;;;17.23;;
8058;SDS011;4072;42.668;23.396;2023-11-22T06:12:08;21.80;;;17.40;;
8058;SDS011;4072;42.668;23.396;2023-11-22T06:14:36;22.20;;;16.10;;
8058;SDS011;4072;42.668;23.396;2023-11-22T06:17:04;19.23;;;15.33;;
8058;SDS011;4072;42.668;23.396;2023-11-22T06:19:33;22.83;;;17.37;;
8058;SDS011;4072;42.668;23.396;2023-11-22T06:22:01;22.47;;;17.77;;
8058;SDS011;4072;42.668;23.396;2023-11-22T06:24:29;23.97;;;17.83;;
8058;SDS011;4072;42.668;23.396;2023-11-22T06:26:59;22.43;;;18.17;;
8058;SDS011;4072;42.668;23.396;2023-11-22T06:29:27;20.50;;;16.73;;
8058;SDS011;4072;42.668;23.396;2023-11-22T06:31:56;23.77;;;16.33;;
8058;SDS011;4072;42.668;23.396;2023-11-22T06:34:24;19.23;;;16.77;;
8058;SDS011;4072;42.668;23.396;2023-11-22T06:36:52;21.20;;;16.50;;
8058;SDS011;4072;42.668;23.396;2023-11-22T06:39:20;24.50;;;16.77;;
8058;SDS011;4072;42.668;23.396;2023-11-22T06:41:49;22.10;;;17.37;;
8058;SDS011;4072;42.668;23.396;2023-11-22T06:44:18;22.07;;;17.07;;
8058;SDS011;4072;42.668;23.396;2023-11-22T06:46:46;18.63;;;16.20;;
8058;SDS011;4072;42.668;23.396;2023-11-22T06:49:15;20.63;;;15.53;;
8058;SDS011;4072;42.668;23.396;2023-11-22T06:51:43;17.97;;;15.63;;
8058;SDS011;4072;42.668;23.396;2023-11-22T06:54:12;22.03;;;16.27;;
8058;SDS011;4072;42.668;23.396;2023-11-22T06:56:40;19.90;;;15.67;;
8058;SDS011;4072;42.668;23.396;2023-11-22T06:59:08;21.53;;;15.93;;
8058;SDS011;4072;42.668;23.396;2023-11-22T07:01:38;22.33;;;16.17;;
8058;SDS011;4072;42.668;23.396;2023-11-22T07:04:07;22.80;;;17.77;;
8058;SDS011;4072;42.668;23.396;2023-11-22T07:06:35;20.70;;;15.43;;
8058;SDS011;4072;42.668;23.396;2023-11-22T07:09:04;17.63;;;14.50;;
8058;SDS011;4072;42.668;23.396;2023-11-22T07:11:36;23.40;;;14.50;;
8058;SDS011;4072;42.668;23.396;2023-11-22T07:14:04;21.53;;;15.33;;
8058;SDS011;4072;42.668;23.396;2023-11-22T07:16:33;17.93;;;15.13;;
8058;SDS011;4072;42.668;23.396;2023-11-22T07:19:03;21.60;;;15.77;;
8058;SDS011;4072;42.668;23.396;2023-11-22T07:21:33;20.43;;;15.97;;
8058;SDS011;4072;42.668;23.396;2023-11-22T07:24:04;19.10;;;16.10;;
8058;SDS011;4072;42.668;23.396;2023-11-22T07:26:33;18.27;;;14.57;;
8058;SDS011;4072;42.668;23.396;2023-11-22T07:29:02;20.00;;;14.87;;
8058;SDS011;4072;42.668;23.396;2023-11-22T07:31:30;18.50;;;15.20;;
8058;SDS011;4072;42.668;23.396;2023-11-22T07:33:58;22.93;;;16.73;;
8058;SDS011;4072;42.668;23.396;2023-11-22T07:36:29;22.20;;;15.63;;
8058;SDS011;4072;42.668;23.396;2023-11-22T07:38:58;21.37;;;14.33;;
8058;SDS011;4072;42.668;23.396;2023-11-22T07:41:26;18.47;;;14.50;;
8058;SDS011;4072;42.668;23.396;2023-11-22T07:43:54;23.13;;;17.67;;
8058;SDS011;4072;42.668;23.396;2023-11-22T07:46:22;17.67;;;14.70;;
8058;SDS011;4072;42.668;23.396;2023-11-22T07:48:50;18.67;;;14.20;;
8058;SDS011;4072;42.668;23.396;2023-11-22T07:51:19;21.23;;;14.03;;
8058;SDS011;4072;42.668;23.396;2023-11-22T07:53:49;15.87;;;13.57;;
8058;SDS011;4072;42.668;23.396;2023-11-22T07:56:17;17.40;;;14.07;;
8058;SDS011;4072;42.668;23.396;2023-11-22T07:58:46;17.93;;;15.40;;
8058;SDS011;4072;42.668;23.396;2023-11-22T08:01:15;20.30;;;16.40;;
8058;SDS011;4072;42.668;23.396;2023-11-22T08:03:44;22.77;;;16.27;;
8058;SDS011;4072;42.668;23.396;2023-11-22T08:06:14;20.10;;;14.33;;
8058;SDS011;4072;42.668;23.396;2023-11-22T08:08:43;20.70;;;16.17;;
8058;SDS011;4072;42.668;23.396;2023-11-22T08:11:14;22.67;;;16.73;;
8058;SDS011;4072;42.668;23.396;2023-11-22T08:13:44;19.03;;;15.97;;
8058;SDS011;4072;42.668;23.396;2023-11-22T08:16:14;19.80;;;16.60;;
8058;SDS011;4072;42.668;23.396;2023-11-22T08:18:43;22.60;;;16.80;;
8058;SDS011;4072;42.668;23.396;2023-11-22T08:21:11;21.07;;;16.77;;
8058;SDS011;4072;42.668;23.396;2023-11-22T08:23:39;19.27;;;15.73;;
8058;SDS011;4072;42.668;23.396;2023-11-22T08:26:07;19.30;;;16.97;;
8058;SDS011;4072;42.668;23.396;2023-11-22T08:28:40;23.20;;;16.07;;
8058;SDS011;4072;42.668;23.396;2023-11-22T08:31:08;22.87;;;17.43;;
8058;SDS011;4072;42.668;23.396;2023-11-22T08:33:37;25.03;;;17.20;;
8058;SDS011;4072;42.668;23.396;2023-11-22T08:36:07;19.10;;;16.23;;
8058;SDS011;4072;42.668;23.396;2023-11-22T08:38:36;19.63;;;17.53;;
8058;SDS011;4072;42.668;23.396;2023-11-22T08:41:07;24.13;;;18.23;;
8058;SDS011;4072;42.668;23.396;2023-11-22T08:43:41;21.90;;;16.70;;
8058;SDS011;4072;42.668;23.396;2023-11-22T08:46:09;23.67;;;18.70;;
8058;SDS011;4072;42.668;23.396;2023-11-22T08:48:40;45.97;;;34.30;;
8058;SDS011;4072;42.668;23.396;2023-11-22T08:51:09;43.03;;;35.07;;
8058;SDS011;4072;42.668;23.396;2023-11-22T08:53:38;53.00;;;41.53;;
8058;SDS011;4072;42.668;23.396;2023-11-22T08:56:08;56.80;;;41.33;;
8058;SDS011;4072;42.668;23.396;2023-11-22T08:58:36;46.17;;;36.00;;
8058;SDS011;4072;42.668;23.396;2023-11-22T09:01:06;47.17;;;34.03;;
8058;SDS011;4072;42.668;23.396;2023-11-22T09:03:35;45.63;;;33.63;;
8058;SDS011;4072;42.668;23.396;2023-11-22T09:06:04;38.60;;;29.63;;
8058;SDS011;4072;42.668;23.396;2023-11-22T09:08:35;34.63;;;26.33;;
8058;SDS011;4072;42.668;23.396;2023-11-22T09:11:03;30.33;;;25.37;;
8058;SDS011;4072;42.668;23.396;2023-11-22T09:13:33;36.90;;;26.27;;
8058;SDS011;4072;42.668;23.396;2023-11-22T09:16:04;30.07;;;25.10;;
8058;SDS011;4072;42.668;23.396;2023-11-22T09:18:36;35.60;;;28.87;;
8058;SDS011;4072;42.668;23.396;2023-11-22T09:21:04;48.63;;;30.50;;
8058;SDS011;4072;42.668;23.396;2023-11-22T09:23:43;37.57;;;28.87;;
8058;SDS011;4072;42.668;23.396;2023-11-22T09:26:11;37.23;;;25.77;;
8058;SDS011;4072;42.668;23.396;2023-11-22T09:28:41;32.97;;;25.50;;
8058;SDS011;4072;42.668;23.396;2023-11-22T09:31:09;32.90;;;24.60;;
8058;SDS011;4072;42.668;23.396;2023-11-22T09:33:41;25.70;;;21.40;;
8058;SDS011;4072;42.668;23.396;2023-11-22T09:36:10;38.07;;;22.93;;
8058;SDS011;4072;42.668;23.396;2023-11-22T09:38:39;28.03;;;21.10;;
8058;SDS011;4072;42.668;23.396;2023-11-22T09:41:07;28.30;;;20.43;;
8058;SDS011;4072;42.668;23.396;2023-11-22T09:43:36;27.93;;;20.33;;
8058;SDS011;4072;42.668;23.396;2023-11-22T09:46:06;26.33;;;20.00;;
8058;SDS011;4072;42.668;23.396;2023-11-22T09:48:40;24.83;;;18.73;;
8058;SDS011;4072;42.668;23.396;2023-11-22T09:51:14;29.97;;;21.40;;
8058;SDS011;4072;42.668;23.396;2023-11-22T09:53:52;25.77;;;19.73;;
8058;SDS011;4072;42.668;23.396;2023-11-22T09:56:23;25.00;;;18.53;;
8058;SDS011;4072;42.668;23.396;2023-11-22T09:58:53;26.57;;;19.50;;
8058;SDS011;4072;42.668;23.396;2023-11-22T10:01:23;24.53;;;19.17;;
8058;SDS011;4072;42.668;23.396;2023-11-22T10:03:56;19.63;;;15.83;;
8058;SDS011;4072;42.668;23.396;2023-11-22T10:06:25;22.93;;;17.13;;
8058;SDS011;4072;42.668;23.396;2023-11-22T10:08:57;19.10;;;15.33;;
8058;SDS011;4072;42.668;23.396;2023-11-22T10:11:25;22.83;;;18.20;;
8058;SDS011;4072;42.668;23.396;2023-11-22T10:13:55;25.20;;;17.17;;
8058;SDS011;4072;42.668;23.396;2023-11-22T10:16:23;19.37;;;15.93;;
8058;SDS011;4072;42.668;23.396;2023-11-22T10:18:51;22.67;;;18.23;;
8058;SDS011;4072;42.668;23.396;2023-11-22T10:21:22;23.40;;;19.13;;
8058;SDS011;4072;42.668;23.396;2023-11-22T10:23:52;21.43;;;17.87;;
8058;SDS011;4072;42.668;23.396;2023-11-22T10:26:23;24.23;;;18.60;;
8058;SDS011;4072;42.668;23.396;2023-11-22T10:28:54;22.80;;;18.87;;
8058;SDS011;4072;42.668;23.396;2023-11-22T10:31:23;22.93;;;20.07;;
8058;SDS011;4072;42.668;23.396;2023-11-22T10:33:52;26.70;;;20.10;;
8058;SDS011;4072;42.668;23.396;2023-11-22T10:36:23;27.00;;;19.57;;
8058;SDS011;4072;42.668;23.396;2023-11-22T10:38:51;23.50;;;18.77;;
8058;SDS011;4072;42.668;23.396;2023-11-22T10:41:21;28.67;;;19.93;;
8058;SDS011;4072;42.668;23.396;2023-11-22T10:43:50;26.17;;;21.27;;
8058;SDS011;4072;42.668;23.396;2023-11-22T10:46:24;27.40;;;20.87;;
8058;SDS011;4072;42.668;23.396;2023-11-22T10:48:56;22.83;;;19.27;;
8058;SDS011;4072;42.668;23.396;2023-11-22T10:51:29;27.00;;;21.63;;
8058;SDS011;4072;42.668;23.396;2023-11-22T10:53:59;33.63;;;24.90;;
8058;SDS011;4072;42.668;23.396;2023-11-22T10:56:32;23.73;;;18.23;;
8058;SDS011;4072;42.668;23.396;2023-11-22T10:59:09;24.13;;;20.10;;
8058;SDS011;4072;42.668;23.396;2023-11-22T11:01:43;28.37;;;20.43;;
8058;SDS011;4072;42.668;23.396;2023-11-22T11:04:19;50.33;;;36.70;;
8058;SDS011;4072;42.668;23.396;2023-11-22T11:06:51;36.60;;;27.90;;
8058;SDS011;4072;42.668;23.396;2023-11-22T11:09:22;24.43;;;19.87;;
8058;SDS011;4072;42.668;23.396;2023-11-22T11:11:53;21.67;;;17.67;;
8058;SDS011;4072;42.668;23.396;2023-11-22T11:14:22;21.73;;;17.53;;
8058;SDS011;4072;42.668;23.396;2023-11-22T11:16:51;25.13;;;21.03;;
8058;SDS011;4072;42.668;23.396;2023-11-22T11:19:21;27.00;;;20.57;;
8058;SDS011;4072;42.668;23.396;2023-11-22T11:21:51;26.17;;;19.17;;
8058;SDS011;4072;42.668;23.396;2023-11-22T11:24:20;25.93;;;21.07;;
8058;SDS011;4072;42.668;23.396;2023-11-22T11:26:48;26.73;;;20.50;;
8058;SDS011;4072;42.668;23.396;2023-11-22T11:29:31;25.50;;;20.50;;
8058;SDS011;4072;42.668;23.396;2023-11-22T11:32:02;25.77;;;20.37;;
8058;SDS011;4072;42.668;23.396;2023-11-22T11:34:30;27.80;;;20.00;;
8058;SDS011;4072;42.668;23.396;2023-11-22T11:37:00;24.10;;;19.13;;
8058;SDS011;4072;42.668;23.396;2023-11-22T11:39:30;23.73;;;19.50;;
8058;SDS011;4072;42.668;23.396;2023-11-22T11:42:08;24.07;;;20.23;;
8058;SDS011;4072;42.668;23.396;2023-11-22T11:44:50;22.93;;;19.87;;
8058;SDS011;4072;42.668;23.396;2023-11-22T11:47:30;26.13;;;20.67;;
8058;SDS011;4072;42.668;23.396;2023-11-22T11:49:58;26.83;;;21.43;;
8058;SDS011;4072;42.668;23.396;2023-11-22T11:52:28;28.23;;;20.67;;
8058;SDS011;4072;42.668;23.396;2023-11-22T11:54:57;24.70;;;20.33;;
8058;SDS011;4072;42.668;23.396;2023-11-22T11:57:30;28.00;;;20.43;;
8058;SDS011;4072;42.668;23.396;2023-11-22T11:59:59;25.87;;;21.47;;
8058;SDS011;4072;42.668;23.396;2023-11-22T12:02:28;27.00;;;22.83;;
8058;SDS011;4072;42.668;23.396;2023-11-22T12:04:57;25.33;;;21.87;;
8058;SDS011;4072;42.668;23.396;2023-11-22T12:07:25;27.20;;;22.17;;
8058;SDS011;4072;42.668;23.396;2023-11-22T12:09:55;27.00;;;19.77;;
8058;SDS011;4072;42.668;23.396;2023-11-22T12:12:24;30.67;;;22.93;;
8058;SDS011;4072;42.668;23.396;2023-11-22T12:14:52;27.47;;;22.53;;
8058;SDS011;4072;42.668;23.396;2023-11-22T12:17:22;25.57;;;22.80;;
8058;SDS011;4072;42.668;23.396;2023-11-22T12:19:51;28.80;;;23.00;;
8058;SDS011;4072;42.668;23.396;2023-11-22T12:22:20;28.00;;;22.37;;
8058;SDS011;4072;42.668;23.396;2023-11-22T12:24:48;27.70;;;20.70;;
8058;SDS011;4072;42.668;23.396;2023-11-22T12:27:18;25.33;;;20.50;;
8058;SDS011;4072;42.668;23.396;2023-11-22T12:29:49;30.17;;;22.60;;
8058;SDS011;4072;42.668;23.396;2023-11-22T12:32:22;26.17;;;20.90;;
8058;SDS011;4072;42.668;23.396;2023-11-22T12:34:51;23.87;;;19.57;;
8058;SDS011;4072;42.668;23.396;2023-11-22T12:37:20;28.43;;;19.30;;
8058;SDS011;4072;42.668;23.396;2023-11-22T12:39:49;20.80;;;17.13;;
8058;SDS011;4072;42.668;23.396;2023-11-22T12:42:20;20.87;;;16.50;;
8058;SDS011;4072;42.668;23.396;2023-11-22T12:44:49;20.40;;;16.17;;
8058;SDS011;4072;42.668;23.396;2023-11-22T12:47:30;23.10;;;18.93;;
8058;SDS011;4072;42.668;23.396;2023-11-22T12:50:02;25.73;;;20.50;;
8058;SDS011;4072;42.668;23.396;2023-11-22T12:52:32;28.73;;;22.63;;
8058;SDS011;4072;42.668;23.396;2023-11-22T12:55:00;29.33;;;22.73;;
8058;SDS011;4072;42.668;23.396;2023-11-22T12:57:30;30.43;;;23.87;;
8058;SDS011;4072;42.668;23.396;2023-11-22T12:59:59;33.53;;;24.13;;
8058;SDS011;4072;42.668;23.396;2023-11-22T13:02:27;32.47;;;23.60;;
8058;SDS011;4072;42.668;23.396;2023-11-22T13:04:58;29.33;;;24.97;;
8058;SDS011;4072;42.668;23.396;2023-11-22T13:07:26;33.40;;;26.10;;
8058;SDS011;4072;42.668;23.396;2023-11-22T13:09:55;39.07;;;29.37;;
8058;SDS011;4072;42.668;23.396;2023-11-22T13:12:24;31.10;;;25.13;;
8058;SDS011;4072;42.668;23.396;2023-11-22T13:14:53;33.43;;;26.43;;
8058;SDS011;4072;42.668;23.396;2023-11-22T13:17:22;35.53;;;26.10;;
8058;SDS011;4072;42.668;23.396;2023-11-22T13:19:50;35.87;;;25.53;;
8058;SDS011;4072;42.668;23.396;2023-11-22T13:22:18;37.03;;;23.67;;
8058;SDS011;4072;42.668;23.396;2023-11-22T13:24:46;36.13;;;25.20;;
8058;SDS011;4072;42.668;23.396;2023-11-22T13:27:14;34.43;;;25.63;;
8058;SDS011;4072;42.668;23.396;2023-11-22T13:29:43;33.30;;;26.57;;
8058;SDS011;4072;42.668;23.396;2023-11-22T13:32:13;32.57;;;26.77;;
8058;SDS011;4072;42.668;23.396;2023-11-22T13:34:43;34.23;;;25.97;;
8058;SDS011;4072;42.668;23.396;2023-11-22T13:37:11;26.37;;;21.23;;
8058;SDS011;4072;42.668;23.396;2023-11-22T13:39:42;27.43;;;22.27;;
8058;SDS011;4072;42.668;23.396;2023-11-22T13:42:10;26.90;;;21.40;;
8058;SDS011;4072;42.668;23.396;2023-11-22T13:44:38;32.40;;;23.93;;
8058;SDS011;4072;42.668;23.396;2023-11-22T13:47:08;28.77;;;21.00;;
8058;SDS011;4072;42.668;23.396;2023-11-22T13:49:37;27.77;;;19.57;;
8058;SDS011;4072;42.668;23.396;2023-11-22T13:52:05;25.37;;;19.17;;
8058;SDS011;4072;42.668;23.396;2023-11-22T13:54:33;26.40;;;19.67;;
8058;SDS011;4072;42.668;23.396;2023-11-22T13:57:05;23.27;;;19.23;;
8058;SDS011;4072;42.668;23.396;2023-11-22T13:59:33;24.90;;;20.07;;
8058;SDS011;4072;42.668;23.396;2023-11-22T14:02:01;28.57;;;21.23;;
8058;SDS011;4072;42.668;23.396;2023-11-22T14:04:30;21.10;;;15.93;;
8058;SDS011;4072;42.668;23.396;2023-11-22T14:06:59;23.53;;;15.53;;
8058;SDS011;4072;42.668;23.396;2023-11-22T14:09:28;20.43;;;15.63;;
8058;SDS011;4072;42.668;23.396;2023-11-22T14:11:56;19.60;;;15.83;;
8058;SDS011;4072;42.668;23.396;2023-11-22T14:14:24;19.80;;;16.43;;
8058;SDS011;4072;42.668;23.396;2023-11-22T14:16:53;21.53;;;18.03;;
8058;SDS011;4072;42.668;23.396;2023-11-22T14:19:21;25.00;;;19.83;;
8058;SDS011;4072;42.668;23.396;2023-11-22T14:21:50;25.27;;;20.17;;
8058;SDS011;4072;42.668;23.396;2023-11-22T14:24:23;20.13;;;15.77;;
8058;SDS011;4072;42.668;23.396;2023-11-22T14:26:51;19.53;;;16.03;;
8058;SDS011;4072;42.668;23.396;2023-11-22T14:29:20;23.23;;;17.70;;
8058;SDS011;4072;42.668;23.396;2023-11-22T14:31:48;19.60;;;15.77;;
8058;SDS011;4072;42.668;23.396;2023-11-22T14:34:18;19.57;;;14.13;;
8058;SDS011;4072;42.668;23.396;2023-11-22T14:36:46;19.77;;;15.67;;
8058;SDS011;4072;42.668;23.396;2023-11-22T14:39:14;18.37;;;12.60;;
8058;SDS011;4072;42.668;23.396;2023-11-22T14:41:46;15.73;;;11.93;;
8058;SDS011;4072;42.668;23.396;2023-11-22T14:44:14;14.57;;;11.63;;
8058;SDS011;4072;42.668;23.396;2023-11-22T14:46:43;11.37;;;9.57;;
8058;SDS011;4072;42.668;23.396;2023-11-22T14:49:11;11.73;;;9.67;;